Time;durP1;ratioP1;P1;durP2;ratioP2;P2;SDS_P1;SDS_P2;PMS_P1;PMS_P2;Temp;Humidity;BMP_temperature;BMP_pressure;BME280_temperature;BME280_humidity;BME280_pressure;Samples;Min_cycle;Max_cycle;Signal;HPM_P1;HPM_P2
2023/02/25 00:01:33;;;;;;;9.68;5.25;;;;;7.60;97472.00;;;;4955290;28;20054;-65
2023/02/25 00:04:00;;;;;;;7.72;5.00;;;;;7.50;97478.00;;;;4954646;29;20131;-65
2023/02/25 00:06:26;;;;;;;10.85;5.43;;;;;7.50;97471.00;;;;4954983;29;20051;-65
2023/02/25 00:08:54;;;;;;;10.02;5.38;;;;;7.50;97479.00;;;;4954871;29;20051;-65
2023/02/25 00:11:23;;;;;;;11.85;5.00;;;;;7.40;97470.00;;;;4937547;29;20492;-67
2023/02/25 00:13:49;;;;;;;9.65;5.88;;;;;7.40;97474.00;;;;4937400;29;20476;-64
2023/02/25 00:16:16;;;;;;;11.90;5.22;;;;;7.40;97467.00;;;;4954986;29;20058;-64
2023/02/25 00:18:45;;;;;;;7.53;4.72;;;;;7.40;97462.00;;;;4937540;29;20057;-64
2023/02/25 00:21:14;;;;;;;9.35;4.47;;;;;7.30;97461.00;;;;4937715;29;20043;-64
2023/02/25 00:23:43;;;;;;;7.95;4.97;;;;;7.30;97467.00;;;;4936988;29;20500;-65
2023/02/25 00:26:10;;;;;;;12.38;5.13;;;;;7.20;97466.00;;;;4937376;29;20056;-65
2023/02/25 00:28:39;;;;;;;7.70;4.25;;;;;7.20;97467.00;;;;4921726;29;20127;-65
2023/02/25 00:31:09;;;;;;;7.20;4.45;;;;;7.20;97475.00;;;;4921765;29;20054;-64
2023/02/25 00:33:38;;;;;;;7.63;3.97;;;;;7.20;97471.00;;;;4916295;29;20522;-65
2023/02/25 00:36:10;;;;;;;7.63;3.95;;;;;7.20;97481.00;;;;4901622;29;20069;-64
2023/02/25 00:38:37;;;;;;;7.78;4.07;;;;;7.10;97471.00;;;;4935167;29;20051;-65
2023/02/25 00:41:10;;;;;;;14.43;5.15;;;;;7.10;97478.00;;;;4935275;29;20044;-65
2023/02/25 00:43:39;;;;;;;6.80;3.87;;;;;7.00;97487.00;;;;4935108;29;20043;-65
2023/02/25 00:46:09;;;;;;;12.07;4.15;;;;;7.00;97492.00;;;;4918274;29;20054;-66
2023/02/25 00:48:36;;;;;;;7.97;3.58;;;;;6.90;97491.00;;;;4918233;29;20512;-65
2023/02/25 00:51:04;;;;;;;6.53;3.75;;;;;6.90;97489.00;;;;4917969;29;20054;-64
2023/02/25 00:53:31;;;;;;;6.40;3.35;;;;;6.90;97490.00;;;;4917777;29;20055;-65
2023/02/25 00:56:02;;;;;;;6.28;3.28;;;;;6.80;97494.00;;;;4918218;29;20048;-65
2023/02/25 00:58:29;;;;;;;6.55;3.08;;;;;6.70;97499.00;;;;4918128;29;20497;-65
2023/02/25 01:00:55;;;;;;;7.13;2.90;;;;;6.70;97502.00;;;;4934982;29;20050;-65
2023/02/25 01:03:22;;;;;;;8.77;2.72;;;;;6.70;97503.00;;;;4934575;29;20043;-65
2023/02/25 01:05:49;;;;;;;6.15;3.00;;;;;6.70;97504.00;;;;4934812;29;20127;-65
2023/02/25 01:08:18;;;;;;;6.25;2.35;;;;;6.70;97510.00;;;;4935366;29;20080;-66
2023/02/25 01:10:46;;;;;;;8.02;3.08;;;;;6.60;97510.00;;;;4919043;29;20493;-65
2023/02/25 01:13:14;;;;;;;6.13;2.55;;;;;6.60;97504.00;;;;4918279;29;20052;-65
2023/02/25 01:15:40;;;;;;;3.40;2.28;;;;;6.60;97510.00;;;;4918916;29;20056;-65
2023/02/25 01:18:07;;;;;;;6.45;2.95;;;;;6.60;97504.00;;;;4935362;29;20079;-65
2023/02/25 01:20:37;;;;;;;3.35;2.53;;;;;6.70;97516.00;;;;4918275;29;20409;-65
2023/02/25 01:23:04;;;;;;;4.07;2.92;;;;;6.70;97518.00;;;;4935231;29;20086;-65
2023/02/25 01:25:31;;;;;;;5.82;3.20;;;;;6.80;97515.00;;;;4935260;29;20051;-66
2023/02/25 01:27:58;;;;;;;5.75;2.35;;;;;6.70;97531.00;;;;4918275;29;20416;-65
2023/02/25 01:30:24;;;;;;;5.55;2.20;;;;;6.70;97533.00;;;;4918086;29;20043;-65
2023/02/25 01:32:51;;;;;;;4.45;2.13;;;;;6.60;97529.00;;;;4935581;29;20066;-66
2023/02/25 01:35:17;;;;;;;5.65;2.30;;;;;6.60;97534.00;;;;4907668;29;20131;-65
2023/02/25 01:37:46;;;;;;;5.25;1.90;;;;;6.60;97529.00;;;;4926532;29;20047;-66
2023/02/25 01:40:17;;;;;;;4.60;1.95;;;;;6.60;97533.00;;;;4936954;29;20115;-65
2023/02/25 01:42:45;;;;;;;3.67;1.63;;;;;6.60;97530.00;;;;4917885;29;20052;-65
2023/02/25 01:45:21;;;;;;;3.72;1.48;;;;;6.50;97532.00;;;;4939732;29;20046;-66
2023/02/25 01:48:10;;;;;;;2.45;1.55;;;;;6.50;97527.00;;;;4930069;29;20048;-66
2023/02/25 01:50:44;;;;;;;2.47;1.38;;;;;6.50;97531.00;;;;4948067;29;20055;-66
2023/02/25 01:53:11;;;;;;;;;;;;;6.50;97517.00;;;;4932110;29;20058;-66
2023/02/25 01:55:40;;;;;;;4.32;1.10;;;;;6.50;97513.00;;;;4951496;29;19930;-65
2023/02/25 01:58:08;;;;;;;3.50;1.10;;;;;6.50;97513.00;;;;4934169;29;20079;-65
2023/02/25 02:00:37;;;;;;;3.35;1.27;;;;;6.50;97510.00;;;;4934778;29;20536;-65
2023/02/25 02:03:04;;;;;;;1.98;0.90;;;;;6.40;97500.00;;;;4927567;29;20051;-65
2023/02/25 02:05:45;;;;;;;3.58;1.38;;;;;6.40;97502.00;;;;4924764;29;20047;-64
2023/02/25 02:08:12;;;;;;;3.70;1.60;;;;;6.40;97509.00;;;;4939116;29;20047;-65
2023/02/25 02:10:38;;;;;;;5.53;1.00;;;;;6.40;97495.00;;;;4938939;29;20091;-65
2023/02/25 02:13:05;;;;;;;2.55;1.63;;;;;6.40;97495.00;;;;4922201;29;20054;-65
2023/02/25 02:15:39;;;;;;;1.92;1.05;;;;;6.30;97493.00;;;;4939061;29;20047;-65
2023/02/25 02:18:06;;;;;;;4.50;1.08;;;;;6.30;97490.00;;;;4921980;29;20051;-65
2023/02/25 02:21:18;;;;;;;3.78;1.15;;;;;6.20;97487.00;;;;4922589;29;20441;-65
2023/02/25 02:24:26;;;;;;;2.53;1.30;;;;;6.10;97486.00;;;;4921560;29;20043;-65
2023/02/25 02:27:02;;;;;;;3.00;1.13;;;;;6.10;97482.00;;;;4861670;29;20057;-65
2023/02/25 02:29:49;;;;;;;5.10;1.13;;;;;6.10;97494.00;;;;4862648;29;20094;-66
2023/02/25 02:32:25;;;;;;;3.80;1.13;;;;;6.20;97489.00;;;;4922091;29;20055;-65
2023/02/25 02:35:12;;;;;;;3.88;1.20;;;;;6.20;97492.00;;;;4924115;29;20073;-65
2023/02/25 02:37:53;;;;;;;5.88;1.45;;;;;6.30;97496.00;;;;4922124;29;20059;-65
2023/02/25 02:40:39;;;;;;;3.63;1.17;;;;;6.30;97501.00;;;;4921575;29;20055;-65
2023/02/25 02:43:16;;;;;;;3.90;1.20;;;;;6.40;97511.00;;;;4920806;29;20058;-65
2023/02/25 02:45:55;;;;;;;3.88;1.38;;;;;6.40;97503.00;;;;4921670;29;20424;-65
2023/02/25 02:48:25;;;;;;;2.42;1.30;;;;;6.50;97509.00;;;;4921369;29;20082;-65
2023/02/25 02:50:56;;;;;;;3.42;1.27;;;;;6.50;97499.00;;;;4920528;29;20425;-65
2023/02/25 02:53:46;;;;;;;3.25;1.25;;;;;6.50;97513.00;;;;4937467;29;20063;-65
2023/02/25 02:56:16;;;;;;;5.32;1.52;;;;;6.40;97516.00;;;;4938074;29;20075;-65
2023/02/25 02:58:56;;;;;;;3.05;1.08;;;;;6.40;97511.00;;;;4920621;29;20048;-65
2023/02/25 03:01:28;;;;;;;5.63;1.38;;;;;6.40;97520.00;;;;4937263;29;20043;-65
2023/02/25 03:04:01;;;;;;;4.50;1.60;;;;;6.40;97522.00;;;;4919444;29;20476;-65
2023/02/25 03:06:32;;;;;;;2.75;1.20;;;;;6.30;97530.00;;;;4937404;29;20052;-66
2023/02/25 03:09:06;;;;;;;7.47;1.42;;;;;6.30;97525.00;;;;4939571;29;20039;-65
2023/02/25 03:11:33;;;;;;;;;;;;;6.40;97533.00;;;;4943426;29;20036;-65
2023/02/25 03:14:01;;;;;;;5.15;1.20;;;;;6.30;97532.00;;;;4924821;29;19923;-65
2023/02/25 03:16:47;;;;;;;6.78;1.38;;;;;6.20;97516.00;;;;4924837;29;20103;-65
2023/02/25 03:19:19;;;;;;;3.67;1.38;;;;;6.20;97534.00;;;;4925475;29;20135;-65
2023/02/25 03:21:57;;;;;;;3.67;1.00;;;;;6.30;97527.00;;;;4942944;29;20054;-65
2023/02/25 03:24:33;;;;;;;4.70;1.58;;;;;6.20;97524.00;;;;4925035;29;20044;-64
2023/02/25 03:27:19;;;;;;;3.00;1.30;;;;;6.20;97533.00;;;;4925373;29;20290;-65
2023/02/25 03:29:47;;;;;;;5.78;1.25;;;;;6.20;97529.00;;;;4944254;29;20063;-65
2023/02/25 03:32:15;;;;;;;6.05;1.45;;;;;6.20;97521.00;;;;4943928;29;20039;-64
2023/02/25 03:34:47;;;;;;;3.95;1.08;;;;;6.20;97519.00;;;;4943826;29;20054;-64
2023/02/25 03:37:20;;;;;;;5.88;1.63;;;;;6.10;97523.00;;;;4926840;29;20497;-64
2023/02/25 03:39:50;;;;;;;4.28;1.20;;;;;6.10;97524.00;;;;4945064;29;20048;-64
2023/02/25 03:42:22;;;;;;;3.10;1.48;;;;;6.10;97525.00;;;;4912605;29;20058;-64
2023/02/25 03:44:53;;;;;;;3.45;1.30;;;;;6.00;97525.00;;;;4926580;29;20079;-64
2023/02/25 03:47:22;;;;;;;7.70;1.60;;;;;6.00;97543.00;;;;4925445;29;20079;-64
2023/02/25 03:49:58;;;;;;;2.80;1.17;;;;;6.00;97537.00;;;;4925029;29;20143;-64
2023/02/25 03:52:26;;;;;;;3.88;1.33;;;;;6.00;97540.00;;;;4924962;29;20106;-64
2023/02/25 03:54:57;;;;;;;3.15;1.67;;;;;6.10;97547.00;;;;4924836;29;20139;-64
2023/02/25 03:57:33;;;;;;;5.05;1.30;;;;;6.10;97549.00;;;;4924731;29;20082;-64
2023/02/25 04:00:00;;;;;;;5.63;1.80;;;;;6.20;97549.00;;;;4925132;29;20043;-64
2023/02/25 04:02:31;;;;;;;7.97;1.67;;;;;6.30;97545.00;;;;4941245;29;20246;-64
2023/02/25 04:04:58;;;;;;;5.00;1.60;;;;;6.30;97549.00;;;;4922841;29;20051;-64
2023/02/25 04:07:24;;;;;;;3.78;1.50;;;;;6.30;97552.00;;;;4921755;29;20048;-64
2023/02/25 04:09:51;;;;;;;4.03;1.63;;;;;6.30;97551.00;;;;4919835;29;20055;-64
2023/02/25 04:12:17;;;;;;;5.80;1.60;;;;;6.30;97550.00;;;;4936126;29;20039;-64
2023/02/25 04:14:44;;;;;;;6.82;1.50;;;;;6.20;97533.00;;;;4919472;29;20047;-64
2023/02/25 04:17:10;;;;;;;5.78;1.70;;;;;6.20;97540.00;;;;4918784;29;20044;-63
2023/02/25 04:19:37;;;;;;;3.78;1.50;;;;;6.20;97538.00;;;;4918305;29;20051;-64
2023/02/25 04:22:06;;;;;;;3.67;1.73;;;;;6.20;97538.00;;;;4920129;29;20465;-63
2023/02/25 04:24:33;;;;;;;6.68;2.15;;;;;6.30;97534.00;;;;4904905;29;20048;-64
2023/02/25 04:27:00;;;;;;;5.18;1.52;;;;;6.30;97535.00;;;;4938051;29;20063;-65
2023/02/25 04:29:27;;;;;;;4.15;1.60;;;;;6.30;97539.00;;;;4937439;29;20055;-65
2023/02/25 04:31:54;;;;;;;9.48;1.98;;;;;6.20;97552.00;;;;4937785;29;20047;-65
2023/02/25 04:34:21;;;;;;;3.35;1.77;;;;;6.20;97550.00;;;;4920477;29;20472;-65
2023/02/25 04:36:48;;;;;;;5.05;1.67;;;;;6.30;97559.00;;;;4937209;29;20054;-64
2023/02/25 04:39:16;;;;;;;3.10;1.80;;;;;6.30;97560.00;;;;4938975;29;20047;-65
2023/02/25 04:41:44;;;;;;;3.58;1.77;;;;;6.40;97545.00;;;;4936798;29;20040;-65
2023/02/25 04:44:10;;;;;;;4.60;1.65;;;;;6.40;97545.00;;;;4919492;29;20055;-65
2023/02/25 04:46:39;;;;;;;6.13;1.80;;;;;6.40;97554.00;;;;4936176;29;20452;-64
2023/02/25 04:49:08;;;;;;;4.63;1.40;;;;;6.30;97560.00;;;;4918870;29;20047;-65
2023/02/25 04:51:37;;;;;;;4.35;1.65;;;;;6.30;97556.00;;;;4936008;29;20051;-65
2023/02/25 04:54:04;;;;;;;2.80;1.77;;;;;6.30;97560.00;;;;4918589;29;20565;-65
2023/02/25 04:56:30;;;;;;;4.20;1.90;;;;;6.30;97556.00;;;;4935881;29;20043;-65
2023/02/25 04:58:57;;;;;;;5.25;1.90;;;;;6.30;97561.00;;;;4935260;29;20449;-65
2023/02/25 05:01:24;;;;;;;3.55;2.00;;;;;6.30;97558.00;;;;4935213;29;20040;-65
2023/02/25 05:03:55;;;;;;;5.00;1.77;;;;;6.30;97573.00;;;;4934808;29;20126;-65
2023/02/25 05:06:23;;;;;;;5.75;1.70;;;;;6.30;97569.00;;;;4935264;29;20035;-65
2023/02/25 05:08:50;;;;;;;3.88;1.80;;;;;6.20;97560.00;;;;4935233;29;20416;-65
2023/02/25 05:11:18;;;;;;;6.18;2.03;;;;;6.30;97565.00;;;;4934922;29;20055;-65
2023/02/25 05:13:45;;;;;;;5.70;2.05;;;;;6.30;97561.00;;;;4934722;29;20044;-65
2023/02/25 05:16:15;;;;;;;5.95;2.03;;;;;6.30;97560.00;;;;4918253;29;20464;-65
2023/02/25 05:18:44;;;;;;;4.93;1.77;;;;;6.30;97569.00;;;;4934823;29;20047;-65
2023/02/25 05:21:16;;;;;;;4.22;1.83;;;;;6.30;97567.00;;;;4902413;29;20445;-65
2023/02/25 05:23:45;;;;;;;5.75;2.10;;;;;6.30;97563.00;;;;4934848;29;20052;-67
2023/02/25 05:26:13;;;;;;;4.88;1.55;;;;;6.20;97561.00;;;;4935445;29;20079;-63
2023/02/25 05:28:39;;;;;;;8.43;1.88;;;;;6.20;97560.00;;;;4937174;29;20055;-64
2023/02/25 05:31:07;;;;;;;4.10;1.63;;;;;6.20;97554.00;;;;4939101;29;20052;-64
2023/02/25 05:33:35;;;;;;;5.97;2.05;;;;;6.30;97552.00;;;;4939411;29;20047;-63
2023/02/25 05:36:05;;;;;;;6.75;1.60;;;;;6.30;97554.00;;;;4922235;29;20047;-62
2023/02/25 05:38:32;;;;;;;6.10;1.90;;;;;6.30;97557.00;;;;4921665;29;20055;-63
2023/02/25 05:41:00;;;;;;;3.33;2.15;;;;;6.30;97566.00;;;;4938449;29;20050;-63
2023/02/25 05:43:26;;;;;;;4.70;1.58;;;;;6.30;97564.00;;;;4938297;29;20056;-64
2023/02/25 05:45:54;;;;;;;4.35;1.50;;;;;6.30;97571.00;;;;4938609;29;20119;-64
2023/02/25 05:48:22;;;;;;;5.97;2.28;;;;;6.20;97579.00;;;;4921629;29;20051;-63
2023/02/25 05:50:50;;;;;;;3.42;1.70;;;;;6.20;97578.00;;;;4921616;29;20448;-64
2023/02/25 05:53:19;;;;;;;4.15;1.55;;;;;6.20;97586.00;;;;4943414;28;20081;-66
2023/02/25 05:55:46;;;;;;;4.20;1.42;;;;;6.20;97581.00;;;;4957767;28;20123;-63
2023/02/25 05:58:12;;;;;;;6.63;2.05;;;;;6.20;97579.00;;;;4957454;29;20051;-68
2023/02/25 06:00:39;;;;;;;5.35;2.03;;;;;6.20;97563.00;;;;4940737;29;20126;-64
2023/02/25 06:03:05;;;;;;;4.90;1.50;;;;;6.20;97572.00;;;;4924033;29;20047;-64
2023/02/25 06:05:32;;;;;;;4.70;1.75;;;;;6.20;97567.00;;;;4957199;29;20493;-64
2023/02/25 06:07:59;;;;;;;8.55;1.95;;;;;6.20;97566.00;;;;4957217;28;20043;-67
2023/02/25 06:10:26;;;;;;;4.40;1.75;;;;;6.20;97568.00;;;;4957499;28;20043;-64
2023/02/25 06:12:53;;;;;;;5.78;2.58;;;;;6.30;97566.00;;;;4956953;29;20047;-65
2023/02/25 06:15:19;;;;;;;5.88;1.90;;;;;6.40;97564.00;;;;4940582;29;20043;-65
2023/02/25 06:17:46;;;;;;;5.18;1.63;;;;;6.50;97569.00;;;;4965658;29;20047;-65
2023/02/25 06:20:15;;;;;;;3.88;1.73;;;;;6.50;97558.00;;;;4948414;29;20062;-64
2023/02/25 06:22:42;;;;;;;4.82;1.80;;;;;6.50;97566.00;;;;4941600;29;20519;-65
2023/02/25 06:25:09;;;;;;;6.22;1.70;;;;;6.40;97564.00;;;;4940204;29;20086;-65
2023/02/25 06:27:35;;;;;;;8.98;1.50;;;;;6.40;97570.00;;;;4924212;29;20413;-65
2023/02/25 06:30:03;;;;;;;8.52;1.88;;;;;6.40;97580.00;;;;4939819;29;20130;-65
2023/02/25 06:32:29;;;;;;;6.22;1.60;;;;;6.40;97581.00;;;;4956697;29;20042;-64
2023/02/25 06:34:56;;;;;;;6.22;2.05;;;;;6.50;97579.00;;;;4956725;28;20170;-64
2023/02/25 06:37:23;;;;;;;4.57;1.80;;;;;6.50;97591.00;;;;4940088;29;20054;-65
2023/02/25 06:39:51;;;;;;;7.65;2.00;;;;;6.50;97590.00;;;;4956410;28;20043;-65
2023/02/25 06:42:18;;;;;;;4.15;2.13;;;;;6.50;97596.00;;;;4956299;28;20128;-64
2023/02/25 06:44:44;;;;;;;6.03;2.33;;;;;6.50;97601.00;;;;4939635;29;20419;-65
2023/02/25 06:47:11;;;;;;;9.43;2.20;;;;;6.50;97596.00;;;;4957272;28;20047;-65
2023/02/25 06:49:37;;;;;;;4.25;2.70;;;;;6.50;97602.00;;;;4956959;28;20074;-65
2023/02/25 06:52:05;;;;;;;5.20;2.03;;;;;6.50;97606.00;;;;4939872;29;20411;-67
2023/02/25 06:54:31;;;;;;;10.48;2.40;;;;;6.60;97604.00;;;;4940015;29;20530;-65
2023/02/25 06:56:59;;;;;;;9.77;2.67;;;;;6.60;97614.00;;;;4940026;29;20061;-64
2023/02/25 06:59:26;;;;;;;5.55;2.50;;;;;6.50;97617.00;;;;4956745;28;20054;-66
2023/02/25 07:01:52;;;;;;;5.50;2.33;;;;;6.50;97621.00;;;;4939462;29;20512;-65
2023/02/25 07:04:19;;;;;;;5.88;2.28;;;;;6.60;97614.00;;;;4956811;29;20051;-65
2023/02/25 07:06:45;;;;;;;6.47;3.10;;;;;6.60;97619.00;;;;4956820;29;20519;-65
2023/02/25 07:09:12;;;;;;;5.82;2.20;;;;;6.60;97615.00;;;;4939256;29;20106;-65
2023/02/25 07:11:38;;;;;;;6.70;2.20;;;;;6.60;97612.00;;;;4939406;29;20481;-64
2023/02/25 07:14:05;;;;;;;7.70;2.22;;;;;6.60;97612.00;;;;4956423;28;20043;-65
2023/02/25 07:16:33;;;;;;;5.50;1.92;;;;;6.60;97615.00;;;;4956417;28;20073;-65
2023/02/25 07:19:01;;;;;;;6.97;2.25;;;;;6.60;97611.00;;;;4956020;29;20048;-65
2023/02/25 07:21:29;;;;;;;4.10;1.73;;;;;6.70;97612.00;;;;4938381;29;20059;-66
2023/02/25 07:23:57;;;;;;;6.95;2.60;;;;;6.80;97616.00;;;;4938564;29;20488;-65
2023/02/25 07:26:27;;;;;;;5.93;2.03;;;;;6.90;97628.00;;;;4955946;28;20050;-66
2023/02/25 07:28:55;;;;;;;6.88;2.63;;;;;7.00;97627.00;;;;4938931;28;20559;-66
2023/02/25 07:31:23;;;;;;;3.83;1.60;;;;;7.00;97623.00;;;;4923196;29;20079;-65
2023/02/25 07:33:52;;;;;;;9.23;2.78;;;;;7.00;97626.00;;;;4955416;28;20039;-65
2023/02/25 07:36:19;;;;;;;7.60;2.13;;;;;7.20;97612.00;;;;4938120;29;20043;-65
2023/02/25 07:38:47;;;;;;;3.60;2.05;;;;;7.30;97620.00;;;;4938201;29;20047;-65
2023/02/25 07:41:16;;;;;;;4.70;1.88;;;;;7.40;97618.00;;;;4922615;29;20102;-66
2023/02/25 07:43:43;;;;;;;4.53;2.00;;;;;7.40;97612.00;;;;4955024;29;20039;-65
2023/02/25 07:46:11;;;;;;;3.45;1.83;;;;;7.50;97617.00;;;;4955525;29;20098;-64
2023/02/25 07:48:39;;;;;;;6.95;1.60;;;;;7.40;97602.00;;;;4955575;29;20050;-65
2023/02/25 07:51:14;;;;;;;5.30;1.95;;;;;7.60;97615.00;;;;4954858;28;20543;-64
2023/02/25 07:53:41;;;;;;;4.97;1.80;;;;;7.60;97622.00;;;;4938303;29;20043;-65
2023/02/25 07:56:08;;;;;;;4.10;1.95;;;;;7.60;97626.00;;;;4955244;28;20047;-65
2023/02/25 07:58:35;;;;;;;5.43;1.70;;;;;7.70;97637.00;;;;4955185;28;20090;-65
2023/02/25 08:01:09;;;;;;;3.00;1.70;;;;;7.70;97633.00;;;;4955176;29;20448;-65
2023/02/25 08:03:35;;;;;;;3.72;1.30;;;;;7.60;97630.00;;;;4954838;29;20043;-65
2023/02/25 08:06:06;;;;;;;4.88;1.50;;;;;7.60;97639.00;;;;4955164;28;20050;-65
2023/02/25 08:08:34;;;;;;;5.05;2.08;;;;;7.50;97637.00;;;;4937741;28;20060;-65
2023/02/25 08:11:06;;;;;;;5.30;1.75;;;;;7.50;97640.00;;;;4955047;29;20047;-65
2023/02/25 08:13:33;;;;;;;6.63;2.33;;;;;7.60;97636.00;;;;4937862;29;20054;-65
2023/02/25 08:16:10;;;;;;;3.33;1.50;;;;;7.60;97645.00;;;;4954828;28;20580;-65
2023/02/25 08:18:37;;;;;;;6.70;2.13;;;;;7.60;97645.00;;;;4937960;29;20043;-64
2023/02/25 08:21:04;;;;;;;6.68;2.17;;;;;7.60;97637.00;;;;4954810;29;20106;-64
2023/02/25 08:23:30;;;;;;;7.28;2.03;;;;;7.60;97634.00;;;;4937232;29;20137;-65
2023/02/25 08:25:58;;;;;;;6.47;2.28;;;;;7.60;97635.00;;;;4937706;29;20044;-65
2023/02/25 08:28:27;;;;;;;8.57;2.97;;;;;7.50;97632.00;;;;4954783;29;20051;-65
2023/02/25 08:30:58;;;;;;;7.73;2.33;;;;;7.40;97636.00;;;;4954975;28;20076;-65
2023/02/25 08:33:27;;;;;;;6.43;3.08;;;;;7.40;97634.00;;;;4954177;28;20314;-64
2023/02/25 08:35:53;;;;;;;7.45;2.20;;;;;7.50;97633.00;;;;4937244;29;20047;-65
2023/02/25 08:38:20;;;;;;;5.40;1.98;;;;;7.50;97644.00;;;;4954703;29;20054;-64
2023/02/25 08:40:46;;;;;;;5.00;1.98;;;;;7.60;97632.00;;;;4937341;29;20047;-65
2023/02/25 08:43:13;;;;;;;5.65;1.90;;;;;7.60;97647.00;;;;4954000;28;20035;-65
2023/02/25 08:45:40;;;;;;;6.10;1.95;;;;;7.60;97640.00;;;;4937421;29;20047;-64
2023/02/25 08:48:08;;;;;;;5.32;1.70;;;;;7.70;97636.00;;;;4937026;28;20043;-64
2023/02/25 08:50:35;;;;;;;4.35;1.65;;;;;7.80;97637.00;;;;4912344;29;20069;-64
2023/02/25 08:53:01;;;;;;;4.32;1.80;;;;;7.80;97633.00;;;;4935107;29;20044;-65
2023/02/25 08:55:28;;;;;;;7.75;2.05;;;;;7.80;97645.00;;;;4918331;29;20058;-65
2023/02/25 08:57:55;;;;;;;6.57;1.77;;;;;7.90;97651.00;;;;4918107;29;20051;-66
2023/02/25 09:00:22;;;;;;;5.05;1.58;;;;;7.80;97651.00;;;;4915190;29;20054;-65
2023/02/25 09:02:48;;;;;;;6.03;1.38;;;;;7.70;97650.00;;;;4932481;29;20046;-62
2023/02/25 09:05:15;;;;;;;4.40;1.55;;;;;7.70;97642.00;;;;4934030;29;20039;-63
2023/02/25 09:07:43;;;;;;;11.25;2.67;;;;;7.70;97644.00;;;;4933609;29;20043;-63
2023/02/25 09:10:12;;;;;;;9.13;2.42;;;;;7.80;97641.00;;;;4919278;29;20039;-63
2023/02/25 09:12:41;;;;;;;6.32;2.00;;;;;7.80;97641.00;;;;4914376;29;20039;-62
2023/02/25 09:15:08;;;;;;;5.35;1.98;;;;;7.80;97640.00;;;;4912565;29;20551;-64
2023/02/25 09:17:35;;;;;;;6.38;1.70;;;;;7.80;97647.00;;;;4927389;29;20051;-63
2023/02/25 09:20:06;;;;;;;5.85;1.92;;;;;7.90;97641.00;;;;4914071;29;20043;-64
2023/02/25 09:22:37;;;;;;;5.88;1.60;;;;;7.90;97644.00;;;;4914277;29;20044;-63
2023/02/25 09:25:05;;;;;;;5.35;1.80;;;;;7.80;97640.00;;;;4929664;29;20039;-64
2023/02/25 09:27:32;;;;;;;4.45;1.40;;;;;7.70;97645.00;;;;4913106;29;20047;-63
2023/02/25 09:29:58;;;;;;;5.35;1.40;;;;;7.60;97639.00;;;;4930542;29;20048;-64
2023/02/25 09:32:25;;;;;;;4.97;1.50;;;;;7.50;97652.00;;;;4911490;29;20052;-62
2023/02/25 09:34:52;;;;;;;5.45;2.90;;;;;7.60;97654.00;;;;4912255;29;20106;-63
2023/02/25 09:37:18;;;;;;;6.63;1.88;;;;;7.50;97664.00;;;;4911983;29;20052;-63
2023/02/25 09:39:45;;;;;;;4.88;2.28;;;;;7.50;97657.00;;;;4912777;29;20056;-64
2023/02/25 09:42:21;;;;;;;5.45;1.48;;;;;7.30;97654.00;;;;4911563;29;20048;-64
2023/02/25 09:44:50;;;;;;;4.75;1.45;;;;;7.20;97660.00;;;;4927760;29;20051;-63
2023/02/25 09:47:25;;;;;;;7.70;1.83;;;;;7.20;97659.00;;;;4930551;29;20883;-65
2023/02/25 09:50:10;;;;;;;7.85;2.10;;;;;7.30;97664.00;;;;4932381;29;20043;-63
2023/02/25 09:52:48;;;;;;;4.53;1.90;;;;;7.30;97672.00;;;;4927852;29;20048;-65
2023/02/25 09:55:20;;;;;;;12.13;2.10;;;;;7.20;97673.00;;;;4912424;29;20052;-63
2023/02/25 09:58:13;;;;;;;2.72;1.25;;;;;7.20;97665.00;;;;4912542;29;20068;-65
2023/02/25 10:01:03;;;;;;;3.58;1.30;;;;;7.20;97663.00;;;;4913000;29;20047;-63
2023/02/25 10:03:44;;;;;;;6.25;1.35;;;;;7.40;97670.00;;;;4928512;29;20036;-65
2023/02/25 10:06:14;;;;;;;4.03;1.33;;;;;7.40;97666.00;;;;4928672;29;20047;-64
2023/02/25 10:08:56;;;;;;;5.93;1.73;;;;;7.40;97664.00;;;;4922314;29;20138;-64
2023/02/25 10:11:56;;;;;;;6.60;2.08;;;;;7.60;97651.00;;;;4918420;29;20054;-65
2023/02/25 10:14:53;;;;;;;5.75;1.92;;;;;7.70;97648.00;;;;4916604;29;20087;-64
2023/02/25 10:17:45;;;;;;;7.32;1.90;;;;;7.80;97648.00;;;;4919862;29;20532;-64
2023/02/25 10:20:31;;;;;;;4.35;1.50;;;;;7.90;97637.00;;;;4932061;29;20048;-63
2023/02/25 10:23:23;;;;;;;6.68;2.10;;;;;7.80;97636.00;;;;4930844;29;20043;-64
2023/02/25 10:25:59;;;;;;;11.65;2.33;;;;;7.70;97628.00;;;;4931464;29;20048;-65
2023/02/25 10:28:28;;;;;;;5.35;1.80;;;;;7.70;97621.00;;;;4914019;29;20079;-64
2023/02/25 10:31:04;;;;;;;8.93;2.53;;;;;7.70;97630.00;;;;4931654;29;20047;-64
2023/02/25 10:33:36;;;;;;;3.78;1.70;;;;;7.70;97647.00;;;;4938082;29;20117;-64
2023/02/25 10:36:13;;;;;;;6.30;1.70;;;;;7.80;97645.00;;;;4939433;29;20059;-63
2023/02/25 10:38:48;;;;;;;6.53;1.70;;;;;7.80;97647.00;;;;4932260;29;20051;-64
2023/02/25 10:41:16;;;;;;;5.05;1.98;;;;;7.90;97653.00;;;;4913655;29;20039;-68
2023/02/25 10:43:49;;;;;;;7.50;3.00;;;;;7.90;97648.00;;;;4931946;29;20536;-64
2023/02/25 10:46:43;;;;;;;8.65;2.50;;;;;8.00;97639.00;;;;4930224;29;20071;-66
2023/02/25 10:49:21;;;;;;;3.42;1.70;;;;;8.30;97632.00;;;;4914705;29;20071;-66
2023/02/25 10:52:01;;;;;;;9.43;1.85;;;;;8.50;97629.00;;;;4914135;29;20059;-65
2023/02/25 10:54:30;;;;;;;5.68;1.92;;;;;8.70;97640.00;;;;4930959;29;20528;-65
2023/02/25 10:57:01;;;;;;;4.82;1.60;;;;;8.80;97633.00;;;;4929781;29;20439;-65
2023/02/25 10:59:29;;;;;;;4.22;1.30;;;;;8.90;97628.00;;;;4913473;29;20054;-64
2023/02/25 11:01:59;;;;;;;3.45;1.30;;;;;8.90;97637.00;;;;4929793;29;20055;-66
2023/02/25 11:04:38;;;;;;;3.33;1.30;;;;;8.90;97642.00;;;;4913659;29;20095;-65
2023/02/25 11:07:29;;;;;;;3.88;1.60;;;;;8.90;97639.00;;;;4912646;29;20059;-65
2023/02/25 11:10:15;;;;;;;4.00;1.17;;;;;8.90;97637.00;;;;4929447;29;20667;-65
2023/02/25 11:12:51;;;;;;;3.60;1.33;;;;;8.70;97647.00;;;;4912586;29;20048;-64
2023/02/25 11:15:24;;;;;;;5.00;1.67;;;;;8.50;97645.00;;;;4913374;29;20056;-65
2023/02/25 11:18:37;;;;;;;5.03;1.48;;;;;8.50;97650.00;;;;4913204;29;21524;-65
2023/02/25 11:21:15;;;;;;;2.83;0.90;;;;;8.40;97644.00;;;;4928569;29;20063;-65
2023/02/25 11:23:42;;;;;;;4.05;1.80;;;;;8.30;97635.00;;;;4915408;29;20050;-65
2023/02/25 11:26:16;;;;;;;4.38;1.67;;;;;8.20;97636.00;;;;4929928;29;20516;-65
2023/02/25 11:28:44;;;;;;;;;;;;;8.20;97628.00;;;;4913488;29;20051;-66
2023/02/25 11:31:27;;;;;;;5.18;1.40;;;;;8.10;97621.00;;;;4929692;29;20640;-65
2023/02/25 11:34:00;;;;;;;6.07;1.40;;;;;8.10;97641.00;;;;4927772;29;20048;-64
2023/02/25 11:36:33;;;;;;;5.78;1.52;;;;;8.00;97641.00;;;;4911939;29;20043;-64
2023/02/25 11:39:36;;;;;;;11.02;2.03;;;;;8.00;97649.00;;;;4911515;29;20056;-65
2023/02/25 11:42:21;;;;;;;5.97;1.65;;;;;8.10;97624.00;;;;4928984;29;20055;-66
2023/02/25 11:44:49;;;;;;;5.57;1.60;;;;;8.20;97647.00;;;;4913225;29;20044;-65
2023/02/25 11:47:25;;;;;;;5.07;1.55;;;;;8.20;97631.00;;;;4914291;29;20825;-66
2023/02/25 11:49:59;;;;;;;5.18;1.50;;;;;8.30;97622.00;;;;4930568;29;20098;-64
2023/02/25 11:52:44;;;;;;;;;;;;;8.40;97631.00;;;;4929823;29;20050;-64
2023/02/25 11:55:22;;;;;;;;;;;;;8.40;97639.00;;;;4912594;29;20012;-66
2023/02/25 11:58:05;;;;;;;6.03;1.45;;;;;8.40;97630.00;;;;4928468;29;20407;-66
2023/02/25 12:00:49;;;;;;;4.47;1.45;;;;;8.40;97627.00;;;;4898117;29;20079;-65
2023/02/25 12:03:25;;;;;;;3.08;1.23;;;;;8.50;97632.00;;;;4928789;29;20051;-68
2023/02/25 12:06:03;;;;;;;10.93;2.42;;;;;8.60;97614.00;;;;4909854;29;20533;-70
2023/02/25 12:08:41;;;;;;;6.95;1.63;;;;;8.70;97627.00;;;;4926982;29;20143;-67
2023/02/25 12:11:27;;;;;;;6.28;1.75;;;;;9.00;97627.00;;;;4911850;29;20174;-65
2023/02/25 12:14:09;;;;;;;10.70;4.03;;;;;9.00;97635.00;;;;4926841;29;20061;-65
2023/02/25 12:17:12;;;;;;;5.43;2.22;;;;;9.10;97620.00;;;;4929642;29;20055;-65
2023/02/25 12:19:39;;;;;;;5.45;1.90;;;;;8.80;97628.00;;;;4927198;29;20050;-65
2023/02/25 12:22:32;;;;;;;10.38;2.63;;;;;8.50;97626.00;;;;4928465;29;20052;-65
2023/02/25 12:25:22;;;;;;;5.10;1.77;;;;;8.60;97614.00;;;;4929474;29;20046;-67
2023/02/25 12:28:22;;;;;;;3.63;1.60;;;;;8.70;97630.00;;;;4911356;29;20086;-66
2023/02/25 12:31:11;;;;;;;6.10;1.65;;;;;8.80;97605.00;;;;4911040;29;20400;-67
2023/02/25 12:33:41;;;;;;;4.82;1.50;;;;;9.00;97612.00;;;;4913674;29;20062;-66
2023/02/25 12:36:34;;;;;;;6.05;1.45;;;;;9.30;97610.00;;;;4911614;29;20659;-67
2023/02/25 12:39:28;;;;;;;8.48;2.10;;;;;9.40;97591.00;;;;4928392;29;20568;-67
2023/02/25 12:42:15;;;;;;;3.35;1.48;;;;;9.60;97578.00;;;;4927870;29;20044;-66
2023/02/25 12:45:07;;;;;;;4.88;1.33;;;;;9.60;97584.00;;;;4927030;29;20058;-66
2023/02/25 12:47:33;;;;;;;3.05;1.27;;;;;9.70;97583.00;;;;4912134;29;20564;-67
2023/02/25 12:50:31;;;;;;;4.95;1.45;;;;;10.00;97583.00;;;;4929159;29;20496;-66
2023/02/25 12:53:12;;;;;;;7.53;1.55;;;;;10.00;97590.00;;;;4927845;29;20051;-67